sensor_id;sensor_type;location;lat;lon;timestamp;pressure;altitude;pressure_sealevel;temperature;humidity
47712;BME280;57457;51.634;5.886;2023-05-08T00:16:58;101800;;;15.5;87.5
47712;BME280;57457;51.634;5.886;2023-05-08T00:44:15;101800;;;15.5;87.4
47712;BME280;57457;51.634;5.886;2023-05-08T01:12:23;101700;;;15.5;87.4
47712;BME280;57457;51.634;5.886;2023-05-08T01:41:28;101700;;;15.5;87.4
47712;BME280;57457;51.634;5.886;2023-05-08T02:08:59;101700;;;15.4;87.7
47712;BME280;57457;51.634;5.886;2023-05-08T02:33:39;101800;;;15.4;87.7
47712;BME280;57457;51.634;5.886;2023-05-08T03:13:24;101800;;;15.4;87.6
47712;BME280;57457;51.634;5.886;2023-05-08T03:31:08;101800;;;15.4;87.7
47712;BME280;57457;51.634;5.886;2023-05-08T03:48:21;101700;;;15.4;87.5
47712;BME280;57457;51.634;5.886;2023-05-08T04:02:59;101800;;;15.3;87.3
47712;BME280;57457;51.634;5.886;2023-05-08T04:23:41;101700;;;15.2;87.6
47712;BME280;57457;51.634;5.886;2023-05-08T04:53:30;101800;;;15.1;87.9
47712;BME280;57457;51.634;5.886;2023-05-08T05:24:05;101800;;;15.2;87.8
47712;BME280;57457;51.634;5.886;2023-05-08T05:54:23;101800;;;15.5;86.7
47712;BME280;57457;51.634;5.886;2023-05-08T06:18:45;101800;;;15.8;86.5
47712;BME280;57457;51.634;5.886;2023-05-08T06:37:36;101800;;;16.3;86.1
47712;BME280;57457;51.634;5.886;2023-05-08T06:58:43;101800;;;16.6;85.6
47712;BME280;57457;51.634;5.886;2023-05-08T07:42:56;101800;;;17.6;82.8
47712;BME280;57457;51.634;5.886;2023-05-08T08:05:50;101800;;;18.0;82.8
47712;BME280;57457;51.634;5.886;2023-05-08T08:23:12;101900;;;18.4;83.1
47712;BME280;57457;51.634;5.886;2023-05-08T08:38:59;101900;;;18.6;82.8
47712;BME280;57457;51.634;5.886;2023-05-08T08:55:13;101800;;;19.0;78.8
47712;BME280;57457;51.634;5.886;2023-05-08T09:11:06;101800;;;19.9;76.4
47712;BME280;57457;51.634;5.886;2023-05-08T09:26:55;101800;;;20.7;73.7
47712;BME280;57457;51.634;5.886;2023-05-08T09:41:28;101800;;;21.8;74.4
47712;BME280;57457;51.634;5.886;2023-05-08T09:55:16;101800;;;22.1;74.6
47712;BME280;57457;51.634;5.886;2023-05-08T10:08:30;101800;;;22.4;71.8
47712;BME280;57457;51.634;5.886;2023-05-08T10:23:36;101800;;;22.8;74.3
47712;BME280;57457;51.634;5.886;2023-05-08T10:54:36;101800;;;21.8;79.5
47712;BME280;57457;51.634;5.886;2023-05-08T11:15:21;101800;;;21.5;77.2
47712;BME280;57457;51.634;5.886;2023-05-08T11:38:35;101800;;;21.2;77.5
47712;BME280;57457;51.634;5.886;2023-05-08T11:55:33;101800;;;21.3;75.6
47712;BME280;57457;51.634;5.886;2023-05-08T12:09:45;101800;;;21.7;74.3
47712;BME280;57457;51.634;5.886;2023-05-08T12:31:01;101800;;;22.1;65.9
47712;BME280;57457;51.634;5.886;2023-05-08T12:51:24;101800;;;22.9;68.8
47712;BME280;57457;51.634;5.886;2023-05-08T13:07:51;101800;;;23.8;65.2
47712;BME280;57457;51.634;5.886;2023-05-08T13:24:32;101700;;;24.6;68.2
47712;BME280;57457;51.634;5.886;2023-05-08T13:38:48;101700;;;24.4;68.2
47712;BME280;57457;51.634;5.886;2023-05-08T13:55:43;101700;;;24.2;69.5
47712;BME280;57457;51.634;5.886;2023-05-08T14:13:20;101700;;;24.2;68.9
47712;BME280;57457;51.634;5.886;2023-05-08T14:28:34;101700;;;24.5;63.8
47712;BME280;57457;51.634;5.886;2023-05-08T14:47:55;101700;;;24.5;70.7
47712;BME280;57457;51.634;5.886;2023-05-08T15:07:20;101700;;;24.0;70.4
47712;BME280;57457;51.634;5.886;2023-05-08T15:22:46;101700;;;23.6;74.1
47712;BME280;57457;51.634;5.886;2023-05-08T15:40:26;101700;;;23.3;75.7
47712;BME280;57457;51.634;5.886;2023-05-08T15:59:26;101700;;;22.8;80.0
47712;BME280;57457;51.634;5.886;2023-05-08T16:15:36;101700;;;22.2;79.3
47712;BME280;57457;51.634;5.886;2023-05-08T16:36:43;101700;;;21.5;80.7
47712;BME280;57457;51.634;5.886;2023-05-08T17:05:15;101700;;;21.0;81.2
47712;BME280;57457;51.634;5.886;2023-05-08T17:27:43;101700;;;20.4;83.2
47712;BME280;57457;51.634;5.886;2023-05-08T17:46:38;101700;;;19.7;84.1
47712;BME280;57457;51.634;5.886;2023-05-08T18:10:17;101700;;;19.2;84.6
47712;BME280;57457;51.634;5.886;2023-05-08T18:39:20;101700;;;19.0;85.0
47712;BME280;57457;51.634;5.886;2023-05-08T19:03:59;101700;;;18.8;85.2
47712;BME280;57457;51.634;5.886;2023-05-08T19:25:44;101700;;;18.5;85.3
47712;BME280;57457;51.634;5.886;2023-05-08T19:48:23;101700;;;18.2;85.5
47712;BME280;57457;51.634;5.886;2023-05-08T20:07:48;101700;;;17.8;86.1
47712;BME280;57457;51.634;5.886;2023-05-08T20:29:29;101700;;;17.4;86.7
47712;BME280;57457;51.634;5.886;2023-05-08T20:51:10;101700;;;17.2;87.0
47712;BME280;57457;51.634;5.886;2023-05-08T21:14:13;101700;;;17.0;86.9
47712;BME280;57457;51.634;5.886;2023-05-08T21:41:05;101700;;;16.8;87.2
47712;BME280;57457;51.634;5.886;2023-05-08T22:08:17;101700;;;16.7;86.7
47712;BME280;57457;51.634;5.886;2023-05-08T22:38:13;101600;;;16.6;86.8
47712;BME280;57457;51.634;5.886;2023-05-08T23:11:27;101600;;;16.4;86.6
47712;BME280;57457;51.634;5.886;2023-05-08T23:37:29;101600;;;16.3;86.5
47712;BME280;57457;51.634;5.886;2023-05-08T23:57:24;101600;;;16.1;86.8
